Terminal Aerodrome Forecast
Issued by NWS Jackson, MS

Current Version | Previous Version | Text Only | Print | Product List | Glossary On
Versions: 1 2 3 4 5 6 7 8 9 10 11 12 13 14
000
FTUS44 KJAN 011700
TAFGWO
TAF
KGWO 011724Z 0118/0218 15005KT P6SM SCT100 BKN250
     FM012000 18008KT P6SM VCSH SCT050 BKN100
     FM020100 17005KT P6SM BKN100
     FM021000 18005KT 4SM BR OVC015
     FM021400 19010KT P6SM OVC015=

USA.gov is the U.S. government's official web portal to all federal, state and local government web resources and services.